Pagina principale
METAR-TAF:

METAR-TAF

Aeroporti :

Emmen, Svizzera

latitudine: 47-05-32N, longitudine: 8-18-16E, altezza: 426 m

Osservazione

Il bollettino è stato emesso 20 minuti fa, alle 05:20 UTC
Vento 2 kt da direzioni variabili
Temperature 2°C
Umidità 93%
Pressione 1008 hPa
Visibilità 10 km o più
Nubi sparse ad un'altezza di 5300 ft
Nuvoloso ad un'altezza di 6400 ft
Cielo coperto ad un'altezza di 9500 ft

METAR: LSME 180520Z AUTO VRB02KT 9999NDV SCT053 BKN064 OVC095 02/01 Q1008 RMK

Ora: 06:40 (05:40 UTC)


TAF: mancante

Osservazioni e previsioni meteorologiche di più di 4000 aeroporti (messaggi METAR e TAF).

Le stazioni disponibili sono rappresentate dai dischi gialli e rossi sulla carta.

Puntare il mouse per vedere il nome della stazione.

Clicca sopra per visualizzare le osservazioni e previsioni meteorologiche.

Per cambiare la mappa : fare clic sui pulsanti verdi con una croce nera per ingrandire, il pulsante verde con un trattino per diminuire, o sulla freccia verde per le mappe adiacenti.


METAR-TAF: